createdAt,value
2022-08-11T00:00:32.964Z,30.17
2022-08-11T00:03:03.778Z,28.32
2022-08-11T00:05:30.919Z,28.85
2022-08-11T00:07:58.025Z,29.50
2022-08-11T00:10:26.396Z,29.76
2022-08-11T00:12:56.854Z,29.75
2022-08-11T00:15:24.197Z,29.24
2022-08-11T00:17:57.058Z,29.54
2022-08-11T00:20:24.989Z,29.29
2022-08-11T00:22:52.369Z,29.25
2022-08-11T00:25:20.356Z,29.41
2022-08-11T00:27:47.994Z,29.77
2022-08-11T00:30:15.860Z,29.76
2022-08-11T00:32:44.107Z,29.94
2022-08-11T00:35:56.047Z,29.96
2022-08-11T00:37:59.709Z,29.95
2022-08-11T00:40:46.045Z,29.22
2022-08-11T00:43:20.232Z,29.53
2022-08-11T00:46:06.917Z,29.69
2022-08-11T00:48:36.789Z,29.45
2022-08-11T00:51:14.357Z,29.46
2022-08-11T00:53:44.788Z,29.34
2022-08-11T00:56:23.359Z,29.33
2022-08-11T00:58:59.941Z,29.54
2022-08-11T01:01:28.311Z,29.35
2022-08-11T01:04:01.762Z,29.29
2022-08-11T01:06:38.444Z,28.88
2022-08-11T01:09:17.790Z,28.94
2022-08-11T01:11:56.035Z,29.07
2022-08-11T01:14:43.676Z,29.21
2022-08-11T01:17:30.453Z,29.25
2022-08-11T01:20:48.022Z,29.28
2022-08-11T01:22:56.577Z,29.19
2022-08-11T01:25:57.676Z,29.26
2022-08-11T01:28:44.902Z,28.97
2022-08-11T01:31:23.751Z,27.96
2022-08-11T01:34:03.750Z,28.78
2022-08-11T01:36:38.599Z,28.00
2022-08-11T01:39:18.462Z,28.49
2022-08-11T01:42:15.219Z,28.02
2022-08-11T01:44:52.979Z,28.33
2022-08-11T01:47:52.601Z,28.45
2022-08-11T01:50:24.916Z,28.97
2022-08-11T01:52:58.609Z,29.12
2022-08-11T01:55:29.127Z,28.70
2022-08-11T01:58:03.242Z,28.92
2022-08-11T02:00:32.386Z,28.97
2022-08-11T02:03:12.154Z,28.97
2022-08-11T02:05:49.443Z,28.73
2022-08-11T02:08:47.582Z,28.64
2022-08-11T02:11:37.680Z,28.88
2022-08-11T02:14:28.971Z,28.89
2022-08-11T02:17:03.473Z,28.85
2022-08-11T02:19:57.774Z,29.23
2022-08-11T02:22:49.234Z,29.36
2022-08-11T02:25:30.360Z,28.55
2022-08-11T02:27:58.697Z,28.81
2022-08-11T02:30:28.257Z,28.64
2022-08-11T02:33:17.674Z,28.79
2022-08-11T02:35:47.845Z,28.59
2022-08-11T02:38:26.823Z,29.00
2022-08-11T02:40:55.601Z,28.61
2022-08-11T02:43:27.030Z,28.36
2022-08-11T02:45:55.871Z,28.36
2022-08-11T02:48:42.580Z,28.27
2022-08-11T02:51:15.253Z,28.51
2022-08-11T02:53:58.276Z,28.66
2022-08-11T02:56:33.071Z,28.56
2022-08-11T02:59:25.932Z,28.20
2022-08-11T03:02:04.913Z,28.45
2022-08-11T03:04:51.936Z,28.72
2022-08-11T03:07:28.471Z,28.74
2022-08-11T03:10:07.097Z,29.03
2022-08-11T03:13:01.027Z,29.24
2022-08-11T03:15:48.195Z,29.40
2022-08-11T03:18:18.719Z,29.05
2022-08-11T03:20:52.182Z,28.71
2022-08-11T03:23:37.923Z,28.82
2022-08-11T03:26:15.892Z,29.02
2022-08-11T03:28:52.046Z,28.90
2022-08-11T03:31:24.840Z,28.98
2022-08-11T03:34:07.019Z,28.50
2022-08-11T03:37:15.731Z,28.69
2022-08-11T03:39:52.690Z,28.67
2022-08-11T03:42:27.991Z,28.16
2022-08-11T03:45:10.879Z,28.05
2022-08-11T03:47:56.498Z,28.53
2022-08-11T03:50:32.854Z,28.82
2022-08-11T03:53:05.583Z,28.18
2022-08-11T03:55:45.800Z,28.05
2022-08-11T03:58:22.396Z,28.73
2022-08-11T04:00:52.776Z,28.20
2022-08-11T04:03:31.470Z,28.31
2022-08-11T04:06:17.715Z,28.73
2022-08-11T04:08:51.478Z,28.50
2022-08-11T04:11:21.684Z,28.50
2022-08-11T04:14:28.097Z,28.77
2022-08-11T04:17:13.706Z,28.97
2022-08-11T04:19:50.439Z,29.06
2022-08-11T04:22:39.117Z,29.03
2022-08-11T04:25:06.568Z,29.04
2022-08-11T04:27:52.612Z,28.61
2022-08-11T04:30:28.761Z,28.40
2022-08-11T04:33:10.406Z,28.59
2022-08-11T04:35:56.145Z,28.43
2022-08-11T04:38:26.366Z,28.88
2022-08-11T04:41:15.106Z,29.27
2022-08-11T04:44:06.375Z,29.52
2022-08-11T04:46:42.709Z,29.22
2022-08-11T04:49:35.553Z,30.05
2022-08-11T04:52:40.880Z,30.32
2022-08-11T04:55:39.237Z,30.87
2022-08-11T04:58:31.213Z,31.33
2022-08-11T05:01:23.534Z,30.95
2022-08-11T05:04:05.049Z,30.32
2022-08-11T05:06:41.436Z,31.17
2022-08-11T05:09:17.866Z,31.61
2022-08-11T05:12:03.925Z,31.56
2022-08-11T05:14:54.118Z,31.81
2022-08-11T05:17:58.625Z,32.13
2022-08-11T05:20:44.656Z,32.41
2022-08-11T05:23:30.508Z,32.39
2022-08-11T05:26:46.182Z,31.58
2022-08-11T05:29:23.464Z,31.89
2022-08-11T05:32:16.166Z,32.78
2022-08-11T05:34:51.847Z,31.86
2022-08-11T05:37:27.669Z,32.14
2022-08-11T05:40:23.029Z,32.66
2022-08-11T05:43:09.676Z,31.62
2022-08-11T05:46:03.005Z,32.43
2022-08-11T05:48:54.282Z,31.92
2022-08-11T05:51:52.291Z,32.02
2022-08-11T05:54:42.514Z,31.33
2022-08-11T05:57:49.990Z,31.85
2022-08-11T06:00:10.354Z,31.83
2022-08-11T06:02:41.946Z,32.24
2022-08-11T06:05:09.267Z,30.93
2022-08-11T06:07:48.723Z,29.40
2022-08-11T06:10:30.085Z,29.54
2022-08-11T06:12:57.533Z,30.62
2022-08-11T06:15:24.698Z,29.22
2022-08-11T06:17:52.056Z,29.37
2022-08-11T06:20:19.696Z,29.42
2022-08-11T06:22:52.460Z,30.56
2022-08-11T06:25:20.524Z,29.74
2022-08-11T06:27:48.821Z,28.70
2022-08-11T06:30:16.021Z,29.62
2022-08-11T06:32:44.747Z,29.52
2022-08-11T06:35:27.058Z,30.15
2022-08-11T06:38:03.847Z,29.41
2022-08-11T06:40:37.553Z,30.16
2022-08-11T06:43:04.892Z,29.93
2022-08-11T06:45:41.062Z,29.39
2022-08-11T06:48:14.996Z,30.42
2022-08-11T06:51:00.709Z,28.58
2022-08-11T06:53:28.163Z,28.71
2022-08-11T06:56:14.288Z,29.54
2022-08-11T06:59:00.568Z,28.44
2022-08-11T07:01:28.705Z,29.23
2022-08-11T07:03:58.442Z,29.94
2022-08-11T07:06:34.538Z,29.99
2022-08-11T07:10:00.070Z,29.14
2022-08-11T07:12:55.416Z,29.42
2022-08-11T07:16:08.959Z,29.31
2022-08-11T07:18:51.913Z,30.00
2022-08-11T07:22:00.066Z,30.22
2022-08-11T07:25:01.817Z,30.15
2022-08-11T07:27:50.563Z,30.85
2022-08-11T07:30:17.873Z,30.86
2022-08-11T07:32:46.933Z,30.03
2022-08-11T07:35:16.852Z,29.49
2022-08-11T07:38:01.924Z,29.54
2022-08-11T07:40:30.530Z,29.30
2022-08-11T07:42:57.702Z,30.58
2022-08-11T07:45:43.762Z,29.62
2022-08-11T07:48:30.091Z,29.43
2022-08-11T07:51:15.911Z,30.02
2022-08-11T07:53:58.446Z,29.09
2022-08-11T07:56:54.422Z,29.84
2022-08-11T08:00:04.167Z,30.01
2022-08-11T08:02:44.631Z,30.00
2022-08-11T08:05:30.872Z,30.57
2022-08-11T08:08:17.328Z,30.23
2022-08-11T08:11:03.558Z,30.82
2022-08-11T08:13:51.175Z,31.32
2022-08-11T08:16:37.393Z,30.95
2022-08-11T08:19:04.657Z,29.84
2022-08-11T08:21:32.224Z,29.95
2022-08-11T08:23:59.413Z,29.88
2022-08-11T08:26:51.265Z,30.17
2022-08-11T08:29:38.079Z,30.00
2022-08-11T08:32:05.891Z,30.46
2022-08-11T08:34:33.912Z,30.98
2022-08-11T08:37:01.139Z,31.38
2022-08-11T08:39:28.542Z,31.16
2022-08-11T08:41:57.821Z,31.16
2022-08-11T08:44:42.038Z,30.86
2022-08-11T08:47:41.008Z,30.93
2022-08-11T08:50:04.345Z,30.93
2022-08-11T08:52:39.467Z,31.33
2022-08-11T08:55:07.883Z,31.58
2022-08-11T08:57:39.318Z,31.34
2022-08-11T09:00:07.527Z,31.26
2022-08-11T09:02:36.913Z,31.44
2022-08-11T09:05:04.658Z,31.15
2022-08-11T09:07:39.789Z,31.90
2022-08-11T09:10:09.089Z,31.74
2022-08-11T09:12:38.783Z,32.06
2022-08-11T09:15:09.126Z,32.26
2022-08-11T09:17:50.683Z,31.67
2022-08-11T09:20:29.259Z,32.37
2022-08-11T09:26:22.309Z,32.14
2022-08-11T09:28:58.251Z,32.21
2022-08-11T09:31:26.830Z,32.62
2022-08-11T09:33:54.368Z,32.39
2022-08-11T09:36:40.635Z,32.77
2022-08-11T09:39:26.871Z,31.34
2022-08-11T09:42:00.519Z,31.07
2022-08-11T09:44:49.370Z,31.18
2022-08-11T09:47:26.903Z,31.07
2022-08-11T09:49:56.236Z,31.85
2022-08-11T09:52:23.714Z,32.06
2022-08-11T09:54:50.873Z,31.84
2022-08-11T09:57:40.129Z,31.50
2022-08-11T10:00:12.537Z,31.85
2022-08-11T10:02:45.814Z,31.71
2022-08-11T10:05:35.897Z,32.68
2022-08-11T10:08:03.856Z,32.73
2022-08-11T10:10:31.035Z,32.66
2022-08-11T10:12:59.981Z,31.59
2022-08-11T10:15:38.423Z,31.40
2022-08-11T10:18:34.869Z,31.80
2022-08-11T10:21:05.276Z,32.62
2022-08-11T10:24:00.995Z,31.88
2022-08-11T10:26:54.256Z,31.92
2022-08-11T10:29:45.181Z,31.24
2022-08-11T10:32:58.366Z,30.77
2022-08-11T10:35:31.008Z,31.67
2022-08-11T10:38:08.395Z,31.83
2022-08-11T10:40:40.226Z,31.77
2022-08-11T10:43:10.617Z,31.52
2022-08-11T10:45:57.136Z,31.36
2022-08-11T10:48:25.799Z,31.68
2022-08-11T10:51:11.726Z,32.37
2022-08-11T10:54:00.072Z,32.78
2022-08-11T10:56:46.787Z,32.65
2022-08-11T10:59:14.200Z,32.18
2022-08-11T11:01:44.054Z,32.43
2022-08-11T11:04:12.974Z,32.54
2022-08-11T11:06:46.284Z,32.57
2022-08-11T11:09:18.154Z,32.98
2022-08-11T11:12:06.870Z,32.42
2022-08-11T11:14:58.279Z,31.37
2022-08-11T11:17:48.932Z,31.82
2022-08-11T11:20:34.771Z,31.01
2022-08-11T11:23:06.601Z,31.90
2022-08-11T11:25:37.661Z,32.57
2022-08-11T11:28:25.355Z,32.51
2022-08-11T11:31:04.825Z,33.28
2022-08-11T11:33:32.196Z,32.30
2022-08-11T11:36:07.747Z,33.14
2022-08-11T11:38:35.156Z,31.76
2022-08-11T11:41:21.125Z,31.95
2022-08-11T11:43:48.596Z,32.07
2022-08-11T11:46:15.772Z,31.53
2022-08-11T11:48:42.948Z,31.76
2022-08-11T11:51:14.109Z,31.63
2022-08-11T11:53:45.468Z,31.62
2022-08-11T11:56:12.916Z,32.22
2022-08-11T11:59:00.845Z,31.69
2022-08-11T12:01:28.289Z,32.13
2022-08-11T12:03:55.891Z,32.63
2022-08-11T12:06:23.457Z,32.61
2022-08-11T12:08:52.064Z,32.68
2022-08-11T12:11:38.673Z,33.15
2022-08-11T12:14:10.305Z,33.23
2022-08-11T12:16:44.238Z,33.55
2022-08-11T12:19:18.148Z,32.40
2022-08-11T12:22:04.507Z,32.77
2022-08-11T12:24:55.431Z,32.53
2022-08-11T12:27:25.489Z,31.95
2022-08-11T12:30:08.526Z,31.71
2022-08-11T12:32:36.571Z,31.01
2022-08-11T12:35:04.260Z,32.64
2022-08-11T12:37:50.304Z,31.77
2022-08-11T12:40:56.428Z,32.47
2022-08-11T12:43:43.271Z,32.30
2022-08-11T12:46:12.643Z,32.54
2022-08-11T12:49:05.432Z,32.07
2022-08-11T12:52:12.173Z,32.17
2022-08-11T12:54:39.825Z,31.80
2022-08-11T12:57:37.356Z,31.20
2022-08-11T13:00:24.227Z,30.99
2022-08-11T13:03:10.641Z,32.20
2022-08-11T13:05:44.273Z,32.29
2022-08-11T13:08:14.395Z,32.51
2022-08-11T13:11:00.330Z,32.36
2022-08-11T13:13:54.907Z,33.02
2022-08-11T13:16:16.050Z,32.87
2022-08-11T13:18:43.491Z,33.11
2022-08-11T13:21:20.624Z,32.34
2022-08-11T13:24:00.895Z,32.48
2022-08-11T13:26:47.274Z,32.96
2022-08-11T13:29:18.569Z,33.03
2022-08-11T13:31:46.010Z,31.89
2022-08-11T13:34:13.309Z,32.92
2022-08-11T13:36:40.835Z,32.54
2022-08-11T13:39:08.140Z,32.17
2022-08-11T13:41:39.250Z,32.83
2022-08-11T13:44:07.203Z,32.88
2022-08-11T13:46:34.430Z,32.31
2022-08-11T13:49:02.342Z,32.57
2022-08-11T13:51:35.873Z,33.03
2022-08-11T13:54:06.131Z,33.30
2022-08-11T13:56:34.376Z,33.05
2022-08-11T13:59:02.436Z,32.67
2022-08-11T14:02:03.841Z,33.06
2022-08-11T14:04:39.534Z,31.91
2022-08-11T14:07:07.395Z,32.17
2022-08-11T14:09:39.707Z,31.09
2022-08-11T14:12:31.753Z,32.35
2022-08-11T14:15:08.143Z,32.17
2022-08-11T14:17:48.329Z,31.67
2022-08-11T14:20:40.002Z,31.96
2022-08-11T14:23:04.437Z,32.26
2022-08-11T14:26:00.492Z,32.05
2022-08-11T14:28:32.598Z,32.60
2022-08-11T14:31:02.699Z,32.04
2022-08-11T14:33:58.460Z,32.61
2022-08-11T14:36:18.543Z,32.69
2022-08-11T14:38:45.715Z,32.75
2022-08-11T14:41:31.778Z,32.32
2022-08-11T14:44:17.976Z,32.65
2022-08-11T14:47:03.798Z,32.89
2022-08-11T14:49:37.562Z,33.09
2022-08-11T14:52:23.430Z,32.52
2022-08-11T14:55:10.672Z,32.73
2022-08-11T14:57:54.977Z,33.01
2022-08-11T15:00:24.089Z,33.48
2022-08-11T15:03:13.686Z,33.45
2022-08-11T15:05:54.239Z,33.69
2022-08-11T15:08:48.213Z,33.49
2022-08-11T15:11:34.965Z,33.32
2022-08-11T15:14:03.566Z,33.24
2022-08-11T15:16:49.512Z,33.32
2022-08-11T15:19:16.738Z,33.31
2022-08-11T15:22:02.910Z,32.94
2022-08-11T15:24:30.962Z,32.22
2022-08-11T15:27:17.447Z,32.67
2022-08-11T15:30:32.336Z,32.32
2022-08-11T15:33:21.763Z,32.83
2022-08-11T15:36:07.601Z,32.89
2022-08-11T15:38:36.366Z,32.44
2022-08-11T15:41:22.086Z,32.51
2022-08-11T15:44:08.571Z,32.31
2022-08-11T15:46:39.818Z,31.29
2022-08-11T15:49:22.011Z,32.37
2022-08-11T15:51:50.866Z,32.58
2022-08-11T15:54:18.974Z,32.24
2022-08-11T15:56:46.773Z,31.59
2022-08-11T15:59:41.883Z,31.16
2022-08-11T16:02:34.432Z,31.74
2022-08-11T16:05:04.171Z,31.17
2022-08-11T16:07:34.305Z,31.89
2022-08-11T16:10:10.797Z,31.77
2022-08-11T16:13:03.609Z,32.18
2022-08-11T16:15:56.999Z,31.74
2022-08-11T16:18:40.472Z,32.13
2022-08-11T16:21:26.131Z,30.99
2022-08-11T16:23:59.778Z,31.95
2022-08-11T16:27:07.646Z,31.87
2022-08-11T16:29:14.358Z,31.04
2022-08-11T16:31:42.117Z,32.26
2022-08-11T16:34:32.131Z,32.52
2022-08-11T16:37:18.487Z,32.36
2022-08-11T16:39:45.906Z,32.54
2022-08-11T16:43:08.752Z,32.17
2022-08-11T16:45:46.828Z,32.20
2022-08-11T16:48:33.480Z,32.35
2022-08-11T16:51:01.525Z,32.42
2022-08-11T16:53:47.359Z,32.51
2022-08-11T16:56:18.957Z,32.42
2022-08-11T16:59:22.942Z,32.51
2022-08-11T17:01:56.556Z,31.75
2022-08-11T17:05:00.532Z,32.32
2022-08-11T17:07:46.308Z,31.73
2022-08-11T17:10:50.918Z,31.94
2022-08-11T17:13:20.626Z,32.29
2022-08-11T17:16:07.367Z,31.55
2022-08-11T17:18:40.726Z,32.08
2022-08-11T17:21:08.692Z,31.92
2022-08-11T17:23:48.145Z,32.22
2022-08-11T17:26:20.346Z,31.62
2022-08-11T17:28:51.393Z,32.21
2022-08-11T17:31:40.592Z,32.01
2022-08-11T17:34:26.687Z,31.53
2022-08-11T17:36:54.250Z,31.12
2022-08-11T17:39:21.972Z,29.12
2022-08-11T17:42:09.540Z,29.02
2022-08-11T17:44:57.976Z,29.78
2022-08-11T17:47:43.838Z,30.77
2022-08-11T17:50:17.002Z,30.51
2022-08-11T17:53:04.052Z,30.61
2022-08-11T17:55:53.203Z,30.32
2022-08-11T17:58:39.410Z,29.62
2022-08-11T18:01:09.513Z,29.43
2022-08-11T18:03:39.869Z,29.32
2022-08-11T18:06:12.591Z,29.43
2022-08-11T18:08:59.918Z,29.93
2022-08-11T18:12:10.578Z,30.16
2022-08-11T18:14:52.352Z,29.86
2022-08-11T18:17:41.109Z,29.95
2022-08-11T18:20:30.537Z,30.27
2022-08-11T18:23:16.476Z,29.80
2022-08-11T18:26:07.249Z,29.76
2022-08-11T18:28:58.885Z,29.76
2022-08-11T18:31:45.120Z,30.18
2022-08-11T18:34:32.591Z,30.17
2022-08-11T18:37:20.075Z,29.44
2022-08-11T18:40:15.962Z,29.88
2022-08-11T18:43:02.404Z,30.11
2022-08-11T18:45:48.362Z,30.36
2022-08-11T18:48:51.606Z,30.65
2022-08-11T18:51:38.026Z,30.66
2022-08-11T18:54:25.842Z,30.87
2022-08-11T18:57:11.786Z,30.58
2022-08-11T18:59:59.627Z,30.77
2022-08-11T19:02:49.136Z,30.65
2022-08-11T19:06:31.665Z,30.98
2022-08-11T19:08:42.712Z,30.76
2022-08-11T19:11:28.813Z,30.78
2022-08-11T19:14:14.903Z,30.99
2022-08-11T19:17:01.077Z,29.93
2022-08-11T19:19:47.766Z,30.47
2022-08-11T19:22:34.417Z,30.86
2022-08-11T19:25:25.328Z,31.00
2022-08-11T19:28:12.154Z,31.22
2022-08-11T19:30:58.168Z,31.50
2022-08-11T19:34:02.849Z,30.92
2022-08-11T19:36:50.609Z,30.98
2022-08-11T19:39:37.867Z,30.93
2022-08-11T19:42:24.891Z,31.24
2022-08-11T19:45:11.172Z,31.06
2022-08-11T19:48:20.781Z,31.13
2022-08-11T19:51:03.350Z,30.93
2022-08-11T19:53:51.395Z,31.21
2022-08-11T19:56:37.761Z,31.17
2022-08-11T19:59:23.636Z,30.37
2022-08-11T20:02:14.284Z,30.68
2022-08-11T20:05:00.979Z,30.19
2022-08-11T20:07:46.915Z,30.74
2022-08-11T20:10:33.174Z,30.91
2022-08-11T20:13:21.314Z,30.57
2022-08-11T20:16:07.965Z,30.88
2022-08-11T20:18:53.925Z,30.81
2022-08-11T20:21:40.131Z,30.54
2022-08-11T20:24:26.243Z,30.57
2022-08-11T20:27:19.011Z,30.93
2022-08-11T20:30:10.740Z,30.89
2022-08-11T20:32:56.942Z,30.83
2022-08-11T20:35:43.029Z,30.65
2022-08-11T20:38:29.119Z,30.73
2022-08-11T20:41:16.325Z,30.63
2022-08-11T20:44:06.058Z,30.87
2022-08-11T20:46:57.013Z,30.87
2022-08-11T20:49:47.839Z,30.77
2022-08-11T20:52:40.585Z,30.77
2022-08-11T20:55:45.701Z,30.88
2022-08-11T20:59:01.102Z,30.59
2022-08-11T21:01:41.154Z,30.76
2022-08-11T21:04:28.006Z,30.94
2022-08-11T21:07:15.182Z,30.82
2022-08-11T21:10:23.763Z,30.77
2022-08-11T21:13:25.209Z,30.93
2022-08-11T21:16:26.001Z,30.63
2022-08-11T21:20:00.245Z,30.68
2022-08-11T21:22:28.015Z,30.63
2022-08-11T21:25:15.527Z,30.42
2022-08-11T21:28:01.670Z,30.43
2022-08-11T21:30:47.935Z,30.20
2022-08-11T21:33:33.888Z,30.13
2022-08-11T21:36:20.150Z,30.09
2022-08-11T21:39:06.103Z,29.75
2022-08-11T21:41:52.191Z,29.95
2022-08-11T21:44:38.176Z,29.82
2022-08-11T21:47:42.989Z,29.89
2022-08-11T21:50:29.851Z,29.94
2022-08-11T21:53:16.765Z,29.77
2022-08-11T21:56:02.633Z,29.85
2022-08-11T21:58:49.462Z,29.79
2022-08-11T22:01:35.571Z,29.58
2022-08-11T22:04:22.339Z,29.77
2022-08-11T22:07:08.810Z,29.85
2022-08-11T22:09:55.059Z,29.38
2022-08-11T22:12:44.664Z,29.53
2022-08-11T22:15:31.601Z,28.97
2022-08-11T22:18:18.679Z,29.32
2022-08-11T22:21:04.949Z,29.41
2022-08-11T22:23:51.832Z,29.75
2022-08-11T22:26:39.669Z,29.82
2022-08-11T22:29:38.296Z,29.66
2022-08-11T22:32:34.829Z,29.73
2022-08-11T22:35:20.762Z,29.60
2022-08-11T22:38:06.945Z,29.19
2022-08-11T22:40:52.834Z,29.17
2022-08-11T22:43:39.032Z,28.69
2022-08-11T22:46:24.895Z,29.20
2022-08-11T22:49:11.105Z,29.20
2022-08-11T22:51:57.125Z,28.33
2022-08-11T22:54:43.438Z,28.56
2022-08-11T22:57:29.247Z,27.92
2022-08-11T23:00:15.492Z,27.77
2022-08-11T23:03:01.376Z,27.71
2022-08-11T23:05:47.610Z,27.31
2022-08-11T23:08:33.740Z,27.63
2022-08-11T23:11:19.871Z,28.26
2022-08-11T23:14:05.716Z,28.61
2022-08-11T23:16:51.757Z,28.28
2022-08-11T23:20:08.228Z,27.85
2022-08-11T23:22:49.892Z,28.01
2022-08-11T23:25:36.537Z,28.38
2022-08-11T23:28:22.882Z,28.34
2022-08-11T23:31:09.965Z,28.51
2022-08-11T23:33:56.049Z,28.92
2022-08-11T23:36:47.649Z,29.24
2022-08-11T23:39:34.892Z,29.29
2022-08-11T23:42:24.111Z,28.65
2022-08-11T23:45:10.480Z,28.88
2022-08-11T23:47:57.343Z,28.97
2022-08-11T23:50:43.593Z,28.99
2022-08-11T23:53:29.758Z,28.67
2022-08-11T23:56:16.154Z,28.85
2022-08-11T23:59:03.305Z,28.61
